sensor_id;sensor_type;location;lat;lon;timestamp;P1;durP1;ratioP1;P2;durP2;ratioP2
80653;SDS011;70020;45.524;10.240;2024-02-16T00:04:04;78.38;;;49.17;;
80653;SDS011;70020;45.524;10.240;2024-02-16T00:06:30;83.13;;;50.75;;
80653;SDS011;70020;45.524;10.240;2024-02-16T00:08:56;89.07;;;53.85;;
80653;SDS011;70020;45.524;10.240;2024-02-16T00:11:22;84.28;;;50.03;;
80653;SDS011;70020;45.524;10.240;2024-02-16T00:13:50;77.75;;;50.00;;
80653;SDS011;70020;45.524;10.240;2024-02-16T00:16:16;80.47;;;45.42;;
80653;SDS011;70020;45.524;10.240;2024-02-16T00:18:43;74.18;;;44.33;;
80653;SDS011;70020;45.524;10.240;2024-02-16T00:21:09;75.72;;;44.38;;
80653;SDS011;70020;45.524;10.240;2024-02-16T00:23:34;79.57;;;45.77;;
80653;SDS011;70020;45.524;10.240;2024-02-16T00:26:01;71.82;;;43.25;;
80653;SDS011;70020;45.524;10.240;2024-02-16T00:28:26;73.75;;;44.05;;
80653;SDS011;70020;45.524;10.240;2024-02-16T00:30:52;76.30;;;43.43;;
80653;SDS011;70020;45.524;10.240;2024-02-16T00:33:18;70.87;;;42.70;;
80653;SDS011;70020;45.524;10.240;2024-02-16T00:35:44;81.45;;;42.83;;
80653;SDS011;70020;45.524;10.240;2024-02-16T00:38:12;70.20;;;43.65;;
80653;SDS011;70020;45.524;10.240;2024-02-16T00:40:38;73.40;;;43.70;;
80653;SDS011;70020;45.524;10.240;2024-02-16T00:43:08;67.00;;;40.85;;
80653;SDS011;70020;45.524;10.240;2024-02-16T00:45:35;70.47;;;41.78;;
80653;SDS011;70020;45.524;10.240;2024-02-16T00:48:00;68.65;;;43.08;;
80653;SDS011;70020;45.524;10.240;2024-02-16T00:50:27;73.05;;;41.70;;
80653;SDS011;70020;45.524;10.240;2024-02-16T00:52:52;73.60;;;40.80;;
80653;SDS011;70020;45.524;10.240;2024-02-16T00:55:18;62.47;;;40.30;;
80653;SDS011;70020;45.524;10.240;2024-02-16T00:57:44;69.05;;;41.53;;
80653;SDS011;70020;45.524;10.240;2024-02-16T01:00:10;70.83;;;43.53;;
80653;SDS011;70020;45.524;10.240;2024-02-16T01:02:37;71.90;;;41.80;;
80653;SDS011;70020;45.524;10.240;2024-02-16T01:05:02;75.00;;;41.57;;
80653;SDS011;70020;45.524;10.240;2024-02-16T01:07:28;68.03;;;41.45;;
80653;SDS011;70020;45.524;10.240;2024-02-16T01:09:54;69.78;;;41.03;;
80653;SDS011;70020;45.524;10.240;2024-02-16T01:12:21;76.28;;;42.63;;
80653;SDS011;70020;45.524;10.240;2024-02-16T01:14:47;65.50;;;41.38;;
80653;SDS011;70020;45.524;10.240;2024-02-16T01:17:13;72.20;;;40.92;;
80653;SDS011;70020;45.524;10.240;2024-02-16T01:19:39;67.88;;;40.75;;
80653;SDS011;70020;45.524;10.240;2024-02-16T01:22:06;67.65;;;40.13;;
80653;SDS011;70020;45.524;10.240;2024-02-16T01:24:32;71.18;;;41.90;;
80653;SDS011;70020;45.524;10.240;2024-02-16T01:26:58;71.95;;;43.58;;
80653;SDS011;70020;45.524;10.240;2024-02-16T01:29:23;69.97;;;40.17;;
80653;SDS011;70020;45.524;10.240;2024-02-16T01:31:49;70.50;;;40.83;;
80653;SDS011;70020;45.524;10.240;2024-02-16T01:34:14;71.27;;;42.60;;
80653;SDS011;70020;45.524;10.240;2024-02-16T01:36:40;73.80;;;43.08;;
80653;SDS011;70020;45.524;10.240;2024-02-16T01:39:07;71.55;;;43.22;;
80653;SDS011;70020;45.524;10.240;2024-02-16T01:41:33;69.83;;;43.10;;
80653;SDS011;70020;45.524;10.240;2024-02-16T01:43:59;68.25;;;42.58;;
80653;SDS011;70020;45.524;10.240;2024-02-16T01:46:25;71.20;;;42.67;;
80653;SDS011;70020;45.524;10.240;2024-02-16T01:51:17;67.60;;;40.15;;
80653;SDS011;70020;45.524;10.240;2024-02-16T01:53:44;68.82;;;41.28;;
80653;SDS011;70020;45.524;10.240;2024-02-16T01:56:11;68.10;;;41.17;;
80653;SDS011;70020;45.524;10.240;2024-02-16T01:58:37;67.88;;;41.95;;
80653;SDS011;70020;45.524;10.240;2024-02-16T02:01:03;70.90;;;41.05;;
80653;SDS011;70020;45.524;10.240;2024-02-16T02:03:29;69.35;;;40.10;;
80653;SDS011;70020;45.524;10.240;2024-02-16T02:05:54;67.57;;;40.40;;
80653;SDS011;70020;45.524;10.240;2024-02-16T02:08:21;69.07;;;43.13;;
80653;SDS011;70020;45.524;10.240;2024-02-16T02:10:47;75.05;;;42.47;;
80653;SDS011;70020;45.524;10.240;2024-02-16T02:13:12;64.70;;;40.47;;
80653;SDS011;70020;45.524;10.240;2024-02-16T02:15:38;71.20;;;43.10;;
80653;SDS011;70020;45.524;10.240;2024-02-16T02:18:04;75.30;;;43.22;;
80653;SDS011;70020;45.524;10.240;2024-02-16T02:20:31;71.03;;;42.53;;
80653;SDS011;70020;45.524;10.240;2024-02-16T02:22:57;71.00;;;43.75;;
80653;SDS011;70020;45.524;10.240;2024-02-16T02:25:23;79.55;;;43.83;;
80653;SDS011;70020;45.524;10.240;2024-02-16T02:30:16;77.72;;;44.45;;
80653;SDS011;70020;45.524;10.240;2024-02-16T02:32:43;73.10;;;44.60;;
80653;SDS011;70020;45.524;10.240;2024-02-16T02:35:08;78.03;;;44.93;;
80653;SDS011;70020;45.524;10.240;2024-02-16T02:37:34;72.20;;;43.07;;
80653;SDS011;70020;45.524;10.240;2024-02-16T02:40:00;69.82;;;43.90;;
80653;SDS011;70020;45.524;10.240;2024-02-16T02:42:26;77.72;;;43.75;;
80653;SDS011;70020;45.524;10.240;2024-02-16T02:47:18;74.78;;;43.67;;
80653;SDS011;70020;45.524;10.240;2024-02-16T02:49:44;72.90;;;43.53;;
80653;SDS011;70020;45.524;10.240;2024-02-16T02:52:10;75.60;;;44.07;;
80653;SDS011;70020;45.524;10.240;2024-02-16T02:54:35;74.90;;;44.07;;
80653;SDS011;70020;45.524;10.240;2024-02-16T02:57:01;75.40;;;45.90;;
80653;SDS011;70020;45.524;10.240;2024-02-16T02:59:27;73.40;;;46.03;;
80653;SDS011;70020;45.524;10.240;2024-02-16T03:01:53;74.00;;;46.50;;
80653;SDS011;70020;45.524;10.240;2024-02-16T03:04:19;78.15;;;47.25;;
80653;SDS011;70020;45.524;10.240;2024-02-16T03:09:11;78.03;;;47.95;;
80653;SDS011;70020;45.524;10.240;2024-02-16T03:11:38;76.63;;;47.92;;
80653;SDS011;70020;45.524;10.240;2024-02-16T03:14:04;80.50;;;49.50;;
80653;SDS011;70020;45.524;10.240;2024-02-16T03:16:30;80.43;;;51.22;;
80653;SDS011;70020;45.524;10.240;2024-02-16T03:18:57;78.95;;;49.42;;
80653;SDS011;70020;45.524;10.240;2024-02-16T03:21:23;81.97;;;48.88;;
80653;SDS011;70020;45.524;10.240;2024-02-16T03:23:48;82.87;;;50.03;;
80653;SDS011;70020;45.524;10.240;2024-02-16T03:26:18;86.20;;;49.97;;
80653;SDS011;70020;45.524;10.240;2024-02-16T03:28:45;83.65;;;50.45;;
80653;SDS011;70020;45.524;10.240;2024-02-16T03:31:18;80.72;;;48.97;;
80653;SDS011;70020;45.524;10.240;2024-02-16T03:33:45;82.60;;;50.15;;
80653;SDS011;70020;45.524;10.240;2024-02-16T03:36:11;85.75;;;52.20;;
80653;SDS011;70020;45.524;10.240;2024-02-16T03:38:45;82.85;;;51.83;;
80653;SDS011;70020;45.524;10.240;2024-02-16T03:41:15;82.45;;;51.75;;
80653;SDS011;70020;45.524;10.240;2024-02-16T03:43:43;88.05;;;51.88;;
80653;SDS011;70020;45.524;10.240;2024-02-16T03:46:09;80.43;;;50.63;;
80653;SDS011;70020;45.524;10.240;2024-02-16T03:48:35;84.22;;;52.67;;
80653;SDS011;70020;45.524;10.240;2024-02-16T03:51:01;84.77;;;50.50;;
80653;SDS011;70020;45.524;10.240;2024-02-16T03:53:28;84.85;;;51.53;;
80653;SDS011;70020;45.524;10.240;2024-02-16T03:55:54;87.45;;;52.83;;
80653;SDS011;70020;45.524;10.240;2024-02-16T03:58:21;90.83;;;53.00;;
80653;SDS011;70020;45.524;10.240;2024-02-16T04:00:47;85.88;;;51.85;;
80653;SDS011;70020;45.524;10.240;2024-02-16T04:05:40;94.72;;;54.22;;
80653;SDS011;70020;45.524;10.240;2024-02-16T04:10:32;92.32;;;54.50;;
80653;SDS011;70020;45.524;10.240;2024-02-16T04:12:59;88.25;;;53.58;;
80653;SDS011;70020;45.524;10.240;2024-02-16T04:15:25;88.55;;;51.72;;
80653;SDS011;70020;45.524;10.240;2024-02-16T04:17:51;94.13;;;54.78;;
80653;SDS011;70020;45.524;10.240;2024-02-16T04:20:17;91.53;;;52.50;;
80653;SDS011;70020;45.524;10.240;2024-02-16T04:22:43;89.22;;;54.13;;
80653;SDS011;70020;45.524;10.240;2024-02-16T04:25:09;85.78;;;49.88;;
80653;SDS011;70020;45.524;10.240;2024-02-16T04:27:35;85.90;;;50.80;;
80653;SDS011;70020;45.524;10.240;2024-02-16T04:32:33;82.13;;;49.45;;
80653;SDS011;70020;45.524;10.240;2024-02-16T04:34:59;88.20;;;51.47;;
80653;SDS011;70020;45.524;10.240;2024-02-16T04:37:25;87.45;;;52.22;;
80653;SDS011;70020;45.524;10.240;2024-02-16T04:39:51;79.60;;;46.60;;
80653;SDS011;70020;45.524;10.240;2024-02-16T04:42:17;83.07;;;50.42;;
80653;SDS011;70020;45.524;10.240;2024-02-16T04:44:43;78.17;;;49.27;;
80653;SDS011;70020;45.524;10.240;2024-02-16T04:47:09;81.38;;;47.97;;
80653;SDS011;70020;45.524;10.240;2024-02-16T04:49:35;83.40;;;49.87;;
80653;SDS011;70020;45.524;10.240;2024-02-16T04:52:01;83.80;;;51.88;;
80653;SDS011;70020;45.524;10.240;2024-02-16T04:54:28;86.53;;;50.97;;
80653;SDS011;70020;45.524;10.240;2024-02-16T04:59:20;79.20;;;48.67;;
80653;SDS011;70020;45.524;10.240;2024-02-16T05:01:46;84.47;;;49.37;;
80653;SDS011;70020;45.524;10.240;2024-02-16T05:04:12;80.60;;;50.30;;
80653;SDS011;70020;45.524;10.240;2024-02-16T05:06:42;79.05;;;48.10;;
80653;SDS011;70020;45.524;10.240;2024-02-16T05:09:08;83.65;;;51.67;;
80653;SDS011;70020;45.524;10.240;2024-02-16T05:11:34;82.32;;;47.92;;
80653;SDS011;70020;45.524;10.240;2024-02-16T05:14:00;78.15;;;49.47;;
80653;SDS011;70020;45.524;10.240;2024-02-16T05:16:27;80.28;;;47.15;;
80653;SDS011;70020;45.524;10.240;2024-02-16T05:18:55;82.45;;;50.17;;
80653;SDS011;70020;45.524;10.240;2024-02-16T05:21:21;83.10;;;49.78;;
80653;SDS011;70020;45.524;10.240;2024-02-16T05:23:47;83.72;;;51.08;;
80653;SDS011;70020;45.524;10.240;2024-02-16T05:26:13;83.10;;;50.83;;
80653;SDS011;70020;45.524;10.240;2024-02-16T05:28:39;81.17;;;50.43;;
80653;SDS011;70020;45.524;10.240;2024-02-16T05:31:17;88.57;;;54.80;;
80653;SDS011;70020;45.524;10.240;2024-02-16T05:33:49;96.43;;;52.13;;
80653;SDS011;70020;45.524;10.240;2024-02-16T05:36:19;88.38;;;52.72;;
80653;SDS011;70020;45.524;10.240;2024-02-16T05:38:52;93.25;;;52.40;;
80653;SDS011;70020;45.524;10.240;2024-02-16T05:41:21;89.18;;;53.80;;
80653;SDS011;70020;45.524;10.240;2024-02-16T05:43:47;85.28;;;51.58;;
80653;SDS011;70020;45.524;10.240;2024-02-16T05:46:16;101.97;;;57.60;;
80653;SDS011;70020;45.524;10.240;2024-02-16T05:48:43;98.32;;;55.42;;
80653;SDS011;70020;45.524;10.240;2024-02-16T05:51:09;89.90;;;55.63;;
80653;SDS011;70020;45.524;10.240;2024-02-16T05:53:37;90.03;;;54.03;;
80653;SDS011;70020;45.524;10.240;2024-02-16T05:56:03;95.63;;;53.50;;
80653;SDS011;70020;45.524;10.240;2024-02-16T05:58:30;88.63;;;52.85;;
80653;SDS011;70020;45.524;10.240;2024-02-16T06:00:56;89.53;;;54.50;;
80653;SDS011;70020;45.524;10.240;2024-02-16T06:05:48;89.53;;;53.55;;
80653;SDS011;70020;45.524;10.240;2024-02-16T06:08:13;86.87;;;52.10;;
80653;SDS011;70020;45.524;10.240;2024-02-16T06:10:42;83.70;;;49.50;;
80653;SDS011;70020;45.524;10.240;2024-02-16T06:13:08;85.07;;;50.60;;
80653;SDS011;70020;45.524;10.240;2024-02-16T06:15:33;80.93;;;51.30;;
80653;SDS011;70020;45.524;10.240;2024-02-16T06:17:59;83.27;;;50.17;;
80653;SDS011;70020;45.524;10.240;2024-02-16T06:20:26;88.78;;;54.05;;
80653;SDS011;70020;45.524;10.240;2024-02-16T06:22:51;84.57;;;52.23;;
80653;SDS011;70020;45.524;10.240;2024-02-16T06:25:17;92.77;;;52.93;;
80653;SDS011;70020;45.524;10.240;2024-02-16T06:27:43;91.45;;;52.58;;
80653;SDS011;70020;45.524;10.240;2024-02-16T06:30:09;89.90;;;52.83;;
80653;SDS011;70020;45.524;10.240;2024-02-16T06:32:38;86.25;;;52.15;;
80653;SDS011;70020;45.524;10.240;2024-02-16T06:35:06;76.60;;;45.58;;
80653;SDS011;70020;45.524;10.240;2024-02-16T06:37:33;86.57;;;49.33;;
80653;SDS011;70020;45.524;10.240;2024-02-16T06:39:58;80.60;;;50.65;;
80653;SDS011;70020;45.524;10.240;2024-02-16T06:42:24;87.53;;;52.40;;
80653;SDS011;70020;45.524;10.240;2024-02-16T06:44:50;86.00;;;53.03;;
80653;SDS011;70020;45.524;10.240;2024-02-16T06:47:16;92.50;;;55.05;;
80653;SDS011;70020;45.524;10.240;2024-02-16T06:49:42;91.90;;;55.72;;
80653;SDS011;70020;45.524;10.240;2024-02-16T06:52:08;83.53;;;51.93;;
80653;SDS011;70020;45.524;10.240;2024-02-16T06:54:35;93.40;;;52.75;;
80653;SDS011;70020;45.524;10.240;2024-02-16T06:57:01;88.57;;;53.67;;
80653;SDS011;70020;45.524;10.240;2024-02-16T06:59:26;89.73;;;51.30;;
80653;SDS011;70020;45.524;10.240;2024-02-16T07:01:52;82.20;;;53.08;;
80653;SDS011;70020;45.524;10.240;2024-02-16T07:04:18;89.00;;;53.90;;
80653;SDS011;70020;45.524;10.240;2024-02-16T07:06:44;88.53;;;51.60;;
80653;SDS011;70020;45.524;10.240;2024-02-16T07:09:10;90.50;;;51.70;;
80653;SDS011;70020;45.524;10.240;2024-02-16T07:11:39;89.45;;;52.70;;
80653;SDS011;70020;45.524;10.240;2024-02-16T07:14:05;95.90;;;55.17;;
80653;SDS011;70020;45.524;10.240;2024-02-16T07:18:57;99.20;;;53.63;;
80653;SDS011;70020;45.524;10.240;2024-02-16T07:21:23;91.15;;;51.75;;
80653;SDS011;70020;45.524;10.240;2024-02-16T07:23:51;77.32;;;46.78;;
80653;SDS011;70020;45.524;10.240;2024-02-16T07:26:17;85.82;;;49.67;;
80653;SDS011;70020;45.524;10.240;2024-02-16T07:28:43;84.77;;;50.47;;
80653;SDS011;70020;45.524;10.240;2024-02-16T07:31:09;86.10;;;51.55;;
80653;SDS011;70020;45.524;10.240;2024-02-16T07:33:36;86.82;;;51.55;;
80653;SDS011;70020;45.524;10.240;2024-02-16T07:36:01;90.17;;;53.43;;
80653;SDS011;70020;45.524;10.240;2024-02-16T07:38:26;83.73;;;51.30;;
80653;SDS011;70020;45.524;10.240;2024-02-16T07:40:53;90.72;;;53.10;;
80653;SDS011;70020;45.524;10.240;2024-02-16T07:43:20;91.80;;;52.58;;
80653;SDS011;70020;45.524;10.240;2024-02-16T07:45:49;86.32;;;52.22;;
80653;SDS011;70020;45.524;10.240;2024-02-16T07:48:14;92.20;;;53.13;;
80653;SDS011;70020;45.524;10.240;2024-02-16T07:50:40;92.55;;;53.05;;
80653;SDS011;70020;45.524;10.240;2024-02-16T07:53:06;89.90;;;53.08;;
80653;SDS011;70020;45.524;10.240;2024-02-16T07:55:32;85.72;;;51.08;;
80653;SDS011;70020;45.524;10.240;2024-02-16T07:57:58;81.27;;;52.03;;
80653;SDS011;70020;45.524;10.240;2024-02-16T08:00:24;81.78;;;50.35;;
80653;SDS011;70020;45.524;10.240;2024-02-16T08:05:16;91.07;;;50.97;;
80653;SDS011;70020;45.524;10.240;2024-02-16T08:07:44;89.47;;;51.75;;
80653;SDS011;70020;45.524;10.240;2024-02-16T08:10:09;91.63;;;52.93;;
80653;SDS011;70020;45.524;10.240;2024-02-16T08:12:36;91.65;;;52.67;;
80653;SDS011;70020;45.524;10.240;2024-02-16T08:15:05;87.38;;;52.00;;
80653;SDS011;70020;45.524;10.240;2024-02-16T08:17:34;91.30;;;52.88;;
80653;SDS011;70020;45.524;10.240;2024-02-16T08:20:01;90.97;;;53.47;;
80653;SDS011;70020;45.524;10.240;2024-02-16T08:22:27;100.60;;;53.00;;
80653;SDS011;70020;45.524;10.240;2024-02-16T08:24:52;89.70;;;51.53;;
80653;SDS011;70020;45.524;10.240;2024-02-16T08:27:18;86.43;;;51.43;;
80653;SDS011;70020;45.524;10.240;2024-02-16T08:29:44;84.90;;;50.15;;
80653;SDS011;70020;45.524;10.240;2024-02-16T08:32:10;93.10;;;49.53;;
80653;SDS011;70020;45.524;10.240;2024-02-16T08:34:37;86.10;;;49.67;;
80653;SDS011;70020;45.524;10.240;2024-02-16T08:37:03;90.03;;;51.22;;
80653;SDS011;70020;45.524;10.240;2024-02-16T08:39:30;87.72;;;49.63;;
80653;SDS011;70020;45.524;10.240;2024-02-16T08:41:56;86.60;;;49.90;;
80653;SDS011;70020;45.524;10.240;2024-02-16T08:44:25;81.45;;;47.35;;
80653;SDS011;70020;45.524;10.240;2024-02-16T08:46:51;87.25;;;50.10;;
80653;SDS011;70020;45.524;10.240;2024-02-16T08:49:17;86.97;;;49.10;;
80653;SDS011;70020;45.524;10.240;2024-02-16T08:51:43;97.45;;;51.08;;
80653;SDS011;70020;45.524;10.240;2024-02-16T08:54:09;80.70;;;46.60;;
80653;SDS011;70020;45.524;10.240;2024-02-16T08:56:35;81.25;;;47.25;;
80653;SDS011;70020;45.524;10.240;2024-02-16T08:59:01;84.93;;;46.30;;
80653;SDS011;70020;45.524;10.240;2024-02-16T09:03:56;83.82;;;45.85;;
80653;SDS011;70020;45.524;10.240;2024-02-16T09:06:22;76.50;;;44.60;;
80653;SDS011;70020;45.524;10.240;2024-02-16T09:08:47;75.45;;;43.65;;
80653;SDS011;70020;45.524;10.240;2024-02-16T09:11:13;80.60;;;44.75;;
80653;SDS011;70020;45.524;10.240;2024-02-16T09:13:39;77.30;;;45.60;;
80653;SDS011;70020;45.524;10.240;2024-02-16T09:16:05;77.05;;;44.38;;
80653;SDS011;70020;45.524;10.240;2024-02-16T09:20:57;74.50;;;43.55;;
80653;SDS011;70020;45.524;10.240;2024-02-16T09:23:23;80.63;;;43.97;;
80653;SDS011;70020;45.524;10.240;2024-02-16T09:25:49;71.03;;;41.13;;
80653;SDS011;70020;45.524;10.240;2024-02-16T09:28:16;79.65;;;45.50;;
80653;SDS011;70020;45.524;10.240;2024-02-16T09:30:44;78.07;;;45.70;;
80653;SDS011;70020;45.524;10.240;2024-02-16T09:33:10;79.18;;;44.72;;
80653;SDS011;70020;45.524;10.240;2024-02-16T09:35:36;84.78;;;47.35;;
80653;SDS011;70020;45.524;10.240;2024-02-16T09:38:01;87.03;;;47.77;;
80653;SDS011;70020;45.524;10.240;2024-02-16T09:40:27;77.72;;;46.00;;
80653;SDS011;70020;45.524;10.240;2024-02-16T09:42:53;76.77;;;46.37;;
80653;SDS011;70020;45.524;10.240;2024-02-16T09:45:19;80.50;;;46.58;;
80653;SDS011;70020;45.524;10.240;2024-02-16T09:47:45;78.00;;;45.37;;
80653;SDS011;70020;45.524;10.240;2024-02-16T09:50:14;79.80;;;45.10;;
80653;SDS011;70020;45.524;10.240;2024-02-16T09:52:40;81.60;;;46.17;;
80653;SDS011;70020;45.524;10.240;2024-02-16T09:55:10;81.95;;;47.22;;
80653;SDS011;70020;45.524;10.240;2024-02-16T09:57:38;79.85;;;47.00;;
80653;SDS011;70020;45.524;10.240;2024-02-16T10:00:03;91.90;;;46.90;;
80653;SDS011;70020;45.524;10.240;2024-02-16T10:05:12;82.07;;;48.28;;
80653;SDS011;70020;45.524;10.240;2024-02-16T10:07:38;84.55;;;50.25;;
80653;SDS011;70020;45.524;10.240;2024-02-16T10:10:05;81.55;;;48.60;;
80653;SDS011;70020;45.524;10.240;2024-02-16T10:12:31;83.32;;;49.92;;
80653;SDS011;70020;45.524;10.240;2024-02-16T10:14:57;86.28;;;51.67;;
80653;SDS011;70020;45.524;10.240;2024-02-16T10:17:24;86.47;;;50.47;;
80653;SDS011;70020;45.524;10.240;2024-02-16T10:19:57;85.18;;;49.10;;
80653;SDS011;70020;45.524;10.240;2024-02-16T10:22:22;87.95;;;49.88;;
80653;SDS011;70020;45.524;10.240;2024-02-16T10:24:48;86.60;;;50.13;;
80653;SDS011;70020;45.524;10.240;2024-02-16T10:27:15;90.85;;;51.15;;
80653;SDS011;70020;45.524;10.240;2024-02-16T10:29:44;80.68;;;50.53;;
80653;SDS011;70020;45.524;10.240;2024-02-16T10:32:14;84.63;;;51.25;;
80653;SDS011;70020;45.524;10.240;2024-02-16T10:34:40;85.30;;;51.08;;
80653;SDS011;70020;45.524;10.240;2024-02-16T10:37:06;84.68;;;51.50;;
80653;SDS011;70020;45.524;10.240;2024-02-16T10:39:34;81.18;;;51.85;;
80653;SDS011;70020;45.524;10.240;2024-02-16T10:42:00;85.47;;;52.53;;
80653;SDS011;70020;45.524;10.240;2024-02-16T10:44:28;87.22;;;52.63;;
80653;SDS011;70020;45.524;10.240;2024-02-16T10:46:55;82.97;;;54.28;;
80653;SDS011;70020;45.524;10.240;2024-02-16T10:49:22;86.38;;;53.08;;
80653;SDS011;70020;45.524;10.240;2024-02-16T10:51:51;89.75;;;54.35;;
80653;SDS011;70020;45.524;10.240;2024-02-16T10:54:21;86.75;;;52.70;;
80653;SDS011;70020;45.524;10.240;2024-02-16T10:56:53;81.18;;;52.72;;
80653;SDS011;70020;45.524;10.240;2024-02-16T10:59:19;86.75;;;54.58;;
80653;SDS011;70020;45.524;10.240;2024-02-16T11:01:45;84.90;;;54.95;;
80653;SDS011;70020;45.524;10.240;2024-02-16T11:04:15;85.68;;;55.95;;
80653;SDS011;70020;45.524;10.240;2024-02-16T11:09:11;83.60;;;52.97;;
80653;SDS011;70020;45.524;10.240;2024-02-16T11:11:53;90.32;;;54.05;;
80653;SDS011;70020;45.524;10.240;2024-02-16T11:14:20;85.30;;;53.28;;
80653;SDS011;70020;45.524;10.240;2024-02-16T11:16:47;88.32;;;52.80;;
80653;SDS011;70020;45.524;10.240;2024-02-16T11:19:13;80.80;;;54.03;;
80653;SDS011;70020;45.524;10.240;2024-02-16T11:21:55;79.68;;;52.55;;
80653;SDS011;70020;45.524;10.240;2024-02-16T11:24:27;85.20;;;53.90;;
80653;SDS011;70020;45.524;10.240;2024-02-16T11:26:55;81.25;;;53.40;;
80653;SDS011;70020;45.524;10.240;2024-02-16T11:29:21;80.72;;;53.97;;
80653;SDS011;70020;45.524;10.240;2024-02-16T11:31:47;87.47;;;54.63;;
80653;SDS011;70020;45.524;10.240;2024-02-16T11:34:22;90.57;;;55.03;;
80653;SDS011;70020;45.524;10.240;2024-02-16T11:36:48;84.22;;;56.42;;
80653;SDS011;70020;45.524;10.240;2024-02-16T11:39:15;81.82;;;55.20;;
80653;SDS011;70020;45.524;10.240;2024-02-16T11:44:07;93.05;;;59.97;;
80653;SDS011;70020;45.524;10.240;2024-02-16T11:46:33;96.85;;;60.67;;
80653;SDS011;70020;45.524;10.240;2024-02-16T11:49:07;93.85;;;59.30;;
80653;SDS011;70020;45.524;10.240;2024-02-16T11:51:33;87.53;;;60.25;;
80653;SDS011;70020;45.524;10.240;2024-02-16T11:53:59;96.40;;;59.38;;
80653;SDS011;70020;45.524;10.240;2024-02-16T11:56:25;94.73;;;60.60;;
80653;SDS011;70020;45.524;10.240;2024-02-16T11:58:51;93.20;;;60.60;;
80653;SDS011;70020;45.524;10.240;2024-02-16T12:01:18;91.03;;;59.42;;
80653;SDS011;70020;45.524;10.240;2024-02-16T12:03:44;100.68;;;59.72;;
80653;SDS011;70020;45.524;10.240;2024-02-16T12:06:18;92.47;;;61.35;;
80653;SDS011;70020;45.524;10.240;2024-02-16T12:08:45;89.88;;;59.97;;
80653;SDS011;70020;45.524;10.240;2024-02-16T12:11:11;89.13;;;59.13;;
80653;SDS011;70020;45.524;10.240;2024-02-16T12:13:37;87.03;;;58.22;;
80653;SDS011;70020;45.524;10.240;2024-02-16T12:16:05;95.00;;;60.70;;
80653;SDS011;70020;45.524;10.240;2024-02-16T12:18:31;88.93;;;58.90;;
80653;SDS011;70020;45.524;10.240;2024-02-16T12:23:35;95.88;;;61.72;;
80653;SDS011;70020;45.524;10.240;2024-02-16T12:26:02;91.05;;;60.92;;
80653;SDS011;70020;45.524;10.240;2024-02-16T12:28:28;90.70;;;59.85;;
80653;SDS011;70020;45.524;10.240;2024-02-16T12:30:58;87.95;;;58.72;;
80653;SDS011;70020;45.524;10.240;2024-02-16T12:33:25;93.70;;;61.25;;
80653;SDS011;70020;45.524;10.240;2024-02-16T12:35:50;93.55;;;61.35;;
80653;SDS011;70020;45.524;10.240;2024-02-16T12:38:17;94.53;;;61.08;;
80653;SDS011;70020;45.524;10.240;2024-02-16T12:40:44;89.45;;;58.90;;
80653;SDS011;70020;45.524;10.240;2024-02-16T12:43:11;94.30;;;62.15;;
80653;SDS011;70020;45.524;10.240;2024-02-16T12:45:37;90.60;;;61.03;;
80653;SDS011;70020;45.524;10.240;2024-02-16T12:48:03;95.07;;;60.95;;
80653;SDS011;70020;45.524;10.240;2024-02-16T12:50:30;96.47;;;63.60;;
80653;SDS011;70020;45.524;10.240;2024-02-16T12:53:01;91.65;;;62.35;;
80653;SDS011;70020;45.524;10.240;2024-02-16T12:55:27;92.03;;;62.35;;
80653;SDS011;70020;45.524;10.240;2024-02-16T12:57:53;94.87;;;61.47;;
80653;SDS011;70020;45.524;10.240;2024-02-16T13:00:18;96.13;;;65.27;;
80653;SDS011;70020;45.524;10.240;2024-02-16T13:02:44;99.13;;;65.40;;
80653;SDS011;70020;45.524;10.240;2024-02-16T13:05:10;96.43;;;67.00;;
80653;SDS011;70020;45.524;10.240;2024-02-16T13:07:38;96.28;;;62.83;;
80653;SDS011;70020;45.524;10.240;2024-02-16T13:10:06;99.15;;;64.55;;
80653;SDS011;70020;45.524;10.240;2024-02-16T13:12:33;99.47;;;63.72;;
80653;SDS011;70020;45.524;10.240;2024-02-16T13:14:59;94.38;;;63.00;;
80653;SDS011;70020;45.524;10.240;2024-02-16T13:17:25;89.00;;;61.97;;
80653;SDS011;70020;45.524;10.240;2024-02-16T13:22:20;98.05;;;62.33;;
80653;SDS011;70020;45.524;10.240;2024-02-16T13:24:46;94.75;;;63.88;;
80653;SDS011;70020;45.524;10.240;2024-02-16T13:27:12;94.72;;;63.10;;
80653;SDS011;70020;45.524;10.240;2024-02-16T13:29:38;99.70;;;66.22;;
80653;SDS011;70020;45.524;10.240;2024-02-16T13:32:05;94.10;;;62.88;;
80653;SDS011;70020;45.524;10.240;2024-02-16T13:34:31;97.28;;;63.70;;
80653;SDS011;70020;45.524;10.240;2024-02-16T13:36:57;92.15;;;62.00;;
80653;SDS011;70020;45.524;10.240;2024-02-16T13:39:22;92.13;;;61.83;;
80653;SDS011;70020;45.524;10.240;2024-02-16T13:44:16;91.45;;;57.95;;
80653;SDS011;70020;45.524;10.240;2024-02-16T13:46:46;89.95;;;59.47;;
80653;SDS011;70020;45.524;10.240;2024-02-16T13:49:31;91.38;;;57.05;;
80653;SDS011;70020;45.524;10.240;2024-02-16T13:51:58;88.22;;;58.47;;
80653;SDS011;70020;45.524;10.240;2024-02-16T13:54:27;86.68;;;58.78;;
80653;SDS011;70020;45.524;10.240;2024-02-16T13:56:52;87.47;;;57.90;;
80653;SDS011;70020;45.524;10.240;2024-02-16T13:59:18;87.97;;;56.35;;
80653;SDS011;70020;45.524;10.240;2024-02-16T14:04:11;86.60;;;55.20;;
80653;SDS011;70020;45.524;10.240;2024-02-16T14:06:37;85.72;;;54.08;;
80653;SDS011;70020;45.524;10.240;2024-02-16T14:09:04;84.13;;;52.75;;
80653;SDS011;70020;45.524;10.240;2024-02-16T14:11:36;83.30;;;50.42;;
80653;SDS011;70020;45.524;10.240;2024-02-16T14:14:02;82.63;;;52.30;;
80653;SDS011;70020;45.524;10.240;2024-02-16T14:16:28;83.53;;;52.55;;
80653;SDS011;70020;45.524;10.240;2024-02-16T14:18:54;85.28;;;50.75;;
80653;SDS011;70020;45.524;10.240;2024-02-16T14:21:19;79.83;;;48.97;;
80653;SDS011;70020;45.524;10.240;2024-02-16T14:23:45;81.93;;;52.03;;
80653;SDS011;70020;45.524;10.240;2024-02-16T14:26:11;91.68;;;53.15;;
80653;SDS011;70020;45.524;10.240;2024-02-16T14:28:37;82.80;;;50.63;;
80653;SDS011;70020;45.524;10.240;2024-02-16T14:31:03;85.68;;;52.08;;
80653;SDS011;70020;45.524;10.240;2024-02-16T14:33:29;82.95;;;50.13;;
80653;SDS011;70020;45.524;10.240;2024-02-16T14:35:54;78.23;;;50.20;;
80653;SDS011;70020;45.524;10.240;2024-02-16T14:38:20;82.63;;;50.42;;
80653;SDS011;70020;45.524;10.240;2024-02-16T14:40:46;78.15;;;50.13;;
80653;SDS011;70020;45.524;10.240;2024-02-16T14:45:38;82.78;;;50.35;;
80653;SDS011;70020;45.524;10.240;2024-02-16T14:48:04;80.10;;;52.72;;
80653;SDS011;70020;45.524;10.240;2024-02-16T14:50:30;89.55;;;53.25;;
80653;SDS011;70020;45.524;10.240;2024-02-16T14:52:57;81.47;;;52.33;;
80653;SDS011;70020;45.524;10.240;2024-02-16T14:55:22;85.07;;;52.47;;
80653;SDS011;70020;45.524;10.240;2024-02-16T14:57:48;82.47;;;52.17;;
80653;SDS011;70020;45.524;10.240;2024-02-16T15:00:14;81.97;;;52.53;;